createdAt,value
2023-04-03T00:02:07.464Z,30.75
2023-04-03T00:04:34.699Z,27.33
2023-04-03T00:07:01.839Z,25.25
2023-04-03T00:09:29.067Z,25.17
2023-04-03T00:11:56.186Z,24.48
2023-04-03T00:14:23.348Z,23.73
2023-04-03T00:16:50.626Z,25.08
2023-04-03T00:19:17.775Z,25.52
2023-04-03T00:21:44.948Z,24.83
2023-04-03T00:24:12.256Z,27.38
2023-04-03T00:26:39.411Z,27.05
2023-04-03T00:29:06.552Z,30.50
2023-04-03T00:31:33.950Z,30.25
2023-04-03T00:34:01.093Z,30.85
2023-04-03T00:36:28.285Z,29.30
2023-04-03T00:38:55.570Z,29.65
2023-04-03T00:41:22.655Z,27.15
2023-04-03T00:43:49.829Z,25.73
2023-04-03T00:46:17.175Z,25.55
2023-04-03T00:48:46.557Z,23.10
2023-04-03T00:51:18.859Z,21.67
2023-04-03T00:53:50.874Z,25.92
2023-04-03T00:56:19.475Z,25.35
2023-04-03T00:59:05.513Z,24.00
2023-04-03T01:01:32.958Z,22.08
2023-04-03T01:04:01.004Z,21.17
2023-04-03T01:06:33.005Z,21.83
2023-04-03T01:09:01.265Z,21.77
2023-04-03T01:11:28.418Z,24.45
2023-04-03T01:13:55.741Z,21.73
2023-04-03T01:16:23.107Z,22.02
2023-04-03T01:18:50.587Z,23.10
2023-04-03T01:21:17.795Z,20.90
2023-04-03T01:24:08.226Z,23.33
2023-04-03T01:26:36.686Z,23.48
2023-04-03T01:29:03.972Z,23.48
2023-04-03T01:31:33.928Z,19.77
2023-04-03T01:34:01.301Z,21.92
2023-04-03T01:36:30.528Z,19.75
2023-04-03T01:39:00.191Z,21.85
2023-04-03T01:41:27.654Z,20.35
2023-04-03T01:43:54.779Z,20.80
2023-04-03T01:46:22.022Z,20.55
2023-04-03T01:48:50.215Z,21.85
2023-04-03T01:51:17.514Z,23.92
2023-04-03T01:53:44.788Z,22.13
2023-04-03T01:56:11.903Z,22.17
2023-04-03T01:58:39.388Z,20.27
2023-04-03T02:01:07.174Z,21.27
2023-04-03T02:03:34.469Z,21.35
2023-04-03T02:06:01.649Z,22.25
2023-04-03T02:08:28.871Z,21.95
2023-04-03T02:10:55.998Z,21.20
2023-04-03T02:13:23.215Z,20.02
2023-04-03T02:15:50.417Z,22.85
2023-04-03T02:18:17.996Z,20.05
2023-04-03T02:20:45.128Z,23.17
2023-04-03T02:23:12.397Z,22.27
2023-04-03T02:25:39.574Z,22.05
2023-04-03T02:28:06.926Z,19.77
2023-04-03T02:30:34.582Z,23.20
2023-04-03T02:33:01.921Z,21.30
2023-04-03T02:35:29.148Z,20.17
2023-04-03T02:37:56.728Z,17.80
2023-04-03T02:40:23.893Z,19.20
2023-04-03T02:42:50.990Z,21.08
2023-04-03T02:45:18.172Z,20.35
2023-04-03T02:47:45.399Z,24.73
2023-04-03T02:50:12.592Z,23.55
2023-04-03T02:52:39.800Z,19.42
2023-04-03T02:55:07.231Z,19.20
2023-04-03T02:57:34.417Z,20.92
2023-04-03T03:00:01.642Z,22.73
2023-04-03T03:02:28.820Z,20.73
2023-04-03T03:04:56.127Z,20.92
2023-04-03T03:07:23.660Z,21.80
2023-04-03T03:09:50.833Z,17.65
2023-04-03T03:12:22.468Z,23.27
2023-04-03T03:14:49.971Z,20.00
2023-04-03T03:17:17.167Z,20.40
2023-04-03T03:19:44.445Z,18.40
2023-04-03T03:22:11.790Z,20.27
2023-04-03T03:24:39.017Z,21.15
2023-04-03T03:27:06.586Z,21.48
2023-04-03T03:29:33.781Z,19.30
2023-04-03T03:32:00.898Z,22.13
2023-04-03T03:34:28.016Z,23.85
2023-04-03T03:36:56.142Z,19.67
2023-04-03T03:39:23.260Z,24.73
2023-04-03T03:41:50.822Z,22.27
2023-04-03T03:44:18.030Z,23.60
2023-04-03T03:46:45.365Z,22.23
2023-04-03T03:49:12.570Z,22.88
2023-04-03T03:51:40.864Z,20.88
2023-04-03T03:54:08.196Z,21.73
2023-04-03T03:56:35.426Z,19.30
2023-04-03T03:59:02.665Z,21.60
2023-04-03T04:01:29.924Z,22.05
2023-04-03T04:03:57.208Z,24.52
2023-04-03T04:06:24.484Z,21.65
2023-04-03T04:08:51.683Z,23.90
2023-04-03T04:11:19.705Z,23.17
2023-04-03T04:13:47.320Z,22.98
2023-04-03T04:16:14.497Z,22.65
2023-04-03T04:18:41.740Z,22.60
2023-04-03T04:21:08.906Z,25.23
2023-04-03T04:23:36.082Z,21.75
2023-04-03T04:26:03.224Z,25.17
2023-04-03T04:28:30.503Z,23.63
2023-04-03T04:30:57.633Z,23.25
2023-04-03T04:33:28.097Z,22.67
2023-04-03T04:35:55.655Z,21.60
2023-04-03T04:38:23.022Z,25.02
2023-04-03T04:40:50.497Z,23.75
2023-04-03T04:43:18.338Z,23.23
2023-04-03T04:45:45.569Z,21.00
2023-04-03T04:48:13.115Z,21.17
2023-04-03T04:50:40.543Z,21.75
2023-04-03T04:53:10.901Z,21.40
2023-04-03T04:55:40.322Z,23.77
2023-04-03T04:58:07.597Z,23.98
2023-04-03T05:00:34.808Z,20.92
2023-04-03T05:03:02.121Z,24.73
2023-04-03T05:05:29.602Z,19.77
2023-04-03T05:07:59.282Z,22.20
2023-04-03T05:10:26.428Z,19.83
2023-04-03T05:12:53.816Z,21.13
2023-04-03T05:15:21.000Z,25.38
2023-04-03T05:17:48.518Z,22.02
2023-04-03T05:20:15.993Z,22.85
2023-04-03T05:22:43.156Z,19.33
2023-04-03T05:25:10.800Z,23.35
2023-04-03T05:27:38.032Z,19.75
2023-04-03T05:30:05.419Z,19.08
2023-04-03T05:32:32.703Z,21.42
2023-04-03T05:35:01.186Z,20.80
2023-04-03T05:37:28.553Z,22.42
2023-04-03T05:39:55.921Z,22.52
2023-04-03T05:42:23.038Z,21.50
2023-04-03T05:44:51.170Z,21.48
2023-04-03T05:47:18.782Z,21.65
2023-04-03T05:49:46.405Z,21.80
2023-04-03T05:52:20.066Z,21.25
2023-04-03T05:54:49.153Z,20.88
2023-04-03T05:57:19.833Z,21.45
2023-04-03T05:59:47.825Z,23.17
2023-04-03T06:02:16.018Z,21.38
2023-04-03T06:04:43.297Z,21.13
2023-04-03T06:07:15.008Z,20.58
2023-04-03T06:09:42.164Z,21.95
2023-04-03T06:12:09.443Z,21.50
2023-04-03T06:14:36.947Z,19.88
2023-04-03T06:17:04.183Z,22.90
2023-04-03T06:19:31.349Z,20.27
2023-04-03T06:21:58.510Z,20.67
2023-04-03T06:24:26.252Z,22.27
2023-04-03T06:26:53.661Z,21.13
2023-04-03T06:29:21.680Z,19.73
2023-04-03T06:31:48.799Z,18.50
2023-04-03T06:34:16.810Z,18.52
2023-04-03T06:36:44.409Z,18.98
2023-04-03T06:39:16.293Z,19.80
2023-04-03T06:41:43.780Z,21.15
2023-04-03T06:44:12.932Z,19.38
2023-04-03T06:46:40.832Z,22.05
2023-04-03T06:49:11.386Z,20.67
2023-04-03T06:51:38.609Z,17.30
2023-04-03T06:54:06.971Z,19.90
2023-04-03T06:56:34.167Z,20.10
2023-04-03T06:59:01.830Z,19.95
2023-04-03T07:01:30.914Z,18.77
2023-04-03T07:03:58.144Z,19.45
2023-04-03T07:06:28.051Z,17.98
2023-04-03T07:08:55.628Z,18.35
2023-04-03T07:11:23.324Z,19.17
2023-04-03T07:13:50.713Z,21.05
2023-04-03T07:16:17.977Z,19.25
2023-04-03T07:18:45.204Z,20.17
2023-04-03T07:21:12.462Z,16.67
2023-04-03T07:23:40.056Z,17.65
2023-04-03T07:26:07.682Z,20.35
2023-04-03T07:28:34.858Z,19.20
2023-04-03T07:31:03.618Z,20.60
2023-04-03T07:33:30.845Z,17.58
2023-04-03T07:35:58.267Z,19.13
2023-04-03T07:38:26.151Z,16.10
2023-04-03T07:40:53.775Z,17.17
2023-04-03T07:43:21.950Z,18.42
2023-04-03T07:45:51.726Z,16.23
2023-04-03T07:48:19.820Z,20.42
2023-04-03T07:50:47.389Z,19.25
2023-04-03T07:53:15.157Z,16.52
2023-04-03T07:55:45.458Z,18.75
2023-04-03T07:58:14.086Z,18.17
2023-04-03T08:00:41.221Z,18.23
2023-04-03T08:03:10.445Z,16.55
2023-04-03T08:05:43.007Z,15.95
2023-04-03T08:08:10.998Z,15.73
2023-04-03T08:10:38.480Z,19.90
2023-04-03T08:13:06.218Z,15.75
2023-04-03T08:15:33.531Z,21.65
2023-04-03T08:18:01.844Z,15.43
2023-04-03T08:20:29.399Z,14.98
2023-04-03T08:22:56.693Z,16.98
2023-04-03T08:25:23.886Z,16.80
2023-04-03T08:27:51.074Z,17.60
2023-04-03T08:30:18.380Z,15.10
2023-04-03T08:32:48.511Z,16.98
2023-04-03T08:35:16.026Z,15.20
2023-04-03T08:37:43.245Z,16.30
2023-04-03T08:40:14.567Z,15.63
2023-04-03T08:45:12.810Z,14.40
2023-04-03T08:47:42.842Z,14.68
2023-04-03T08:50:15.689Z,17.13
2023-04-03T08:52:45.051Z,14.23
2023-04-03T08:55:28.945Z,13.90
2023-04-03T08:58:02.261Z,16.70
2023-04-03T09:00:31.984Z,14.98
2023-04-03T09:02:59.268Z,11.45
2023-04-03T09:05:45.210Z,15.00
2023-04-03T09:08:24.688Z,16.20
2023-04-03T09:10:54.673Z,13.05
2023-04-03T09:13:41.128Z,14.82
2023-04-03T09:16:16.517Z,14.32
2023-04-03T09:18:47.390Z,13.30
2023-04-03T09:21:32.364Z,13.93
2023-04-03T09:24:03.045Z,11.32
2023-04-03T09:26:36.546Z,14.50
2023-04-03T09:29:07.233Z,13.20
2023-04-03T09:31:40.128Z,16.42
2023-04-03T09:34:11.594Z,13.63
2023-04-03T09:36:39.589Z,11.30
2023-04-03T09:39:08.961Z,12.57
2023-04-03T09:41:36.067Z,14.00
2023-04-03T09:44:03.305Z,13.65
2023-04-03T09:46:34.455Z,15.30
2023-04-03T09:51:36.823Z,11.50
2023-04-03T09:54:24.114Z,11.35
2023-04-03T09:56:51.811Z,14.07
2023-04-03T09:59:19.202Z,13.30
2023-04-03T10:01:59.172Z,13.20
2023-04-03T10:04:26.743Z,12.52
2023-04-03T10:06:54.911Z,12.57
2023-04-03T10:09:26.745Z,12.68
2023-04-03T10:12:15.366Z,12.23
2023-04-03T10:14:59.520Z,12.90
2023-04-03T10:17:42.043Z,12.98
2023-04-03T10:20:09.278Z,11.43
2023-04-03T10:22:49.136Z,12.40
2023-04-03T10:25:16.294Z,11.43
2023-04-03T10:27:50.853Z,15.90
2023-04-03T10:30:41.541Z,13.15
2023-04-03T10:33:21.788Z,10.95
2023-04-03T10:36:10.551Z,13.30
2023-04-03T10:38:56.528Z,15.23
2023-04-03T10:41:27.689Z,13.35
2023-04-03T10:43:57.821Z,12.30
2023-04-03T10:46:29.805Z,13.57
2023-04-03T10:48:59.859Z,12.50
2023-04-03T10:51:41.005Z,11.18
2023-04-03T10:54:27.742Z,12.27
2023-04-03T10:57:08.608Z,18.35
2023-04-03T10:59:40.322Z,14.52
2023-04-03T11:02:28.545Z,15.00
2023-04-03T11:05:01.563Z,14.93
2023-04-03T11:07:32.117Z,11.77
2023-04-03T11:10:02.654Z,15.98
2023-04-03T11:12:49.924Z,13.50
2023-04-03T11:15:18.424Z,13.38
2023-04-03T11:17:51.296Z,13.55
2023-04-03T11:20:28.495Z,14.50
2023-04-03T11:23:15.259Z,13.95
2023-04-03T11:25:45.537Z,15.57
2023-04-03T11:28:16.677Z,13.75
2023-04-03T11:30:51.174Z,13.50
2023-04-03T11:33:38.772Z,14.43
2023-04-03T11:36:19.102Z,14.52
2023-04-03T11:38:55.821Z,15.98
2023-04-03T11:41:41.510Z,13.05
2023-04-03T11:44:28.734Z,13.40
2023-04-03T11:46:58.053Z,11.60
2023-04-03T11:49:44.484Z,11.75
2023-04-03T11:52:12.682Z,9.70
2023-04-03T11:54:45.131Z,9.75
2023-04-03T11:57:31.919Z,11.43
2023-04-03T11:59:59.177Z,26.52
2023-04-03T12:02:54.275Z,10.98
2023-04-03T12:05:28.541Z,10.30
2023-04-03T12:08:18.231Z,9.90
2023-04-03T12:11:05.298Z,9.50
2023-04-03T12:13:32.493Z,10.07
2023-04-03T12:16:01.027Z,10.95
2023-04-03T12:18:46.835Z,7.30
2023-04-03T12:21:14.961Z,9.93
2023-04-03T12:24:02.261Z,9.68
2023-04-03T12:26:38.754Z,9.95
2023-04-03T12:29:30.445Z,11.40
2023-04-03T12:32:07.196Z,12.70
2023-04-03T12:35:00.624Z,14.32
2023-04-03T12:37:27.779Z,12.48
2023-04-03T12:40:01.108Z,11.70
2023-04-03T12:42:37.443Z,13.98
2023-04-03T12:45:24.933Z,10.93
2023-04-03T12:47:53.900Z,12.60
2023-04-03T12:50:22.221Z,13.73
2023-04-03T12:52:51.834Z,12.57
2023-04-03T12:55:21.310Z,14.27
2023-04-03T12:57:48.494Z,13.10
2023-04-03T13:00:35.302Z,12.23
2023-04-03T13:03:06.694Z,12.35
2023-04-03T13:05:36.808Z,13.52
2023-04-03T13:08:11.502Z,14.20
2023-04-03T13:11:08.165Z,11.52
2023-04-03T13:13:35.443Z,14.63
2023-04-03T13:16:10.246Z,13.98
2023-04-03T13:18:38.287Z,13.70
2023-04-03T13:21:08.038Z,13.20
2023-04-03T13:23:36.908Z,13.80
2023-04-03T13:26:04.912Z,13.18
2023-04-03T13:28:33.169Z,13.48
2023-04-03T13:31:02.948Z,14.75
2023-04-03T13:33:32.487Z,16.80
2023-04-03T13:36:08.448Z,13.40
2023-04-03T13:38:37.447Z,14.13
2023-04-03T13:41:07.089Z,13.25
2023-04-03T13:43:38.241Z,11.45
2023-04-03T13:46:11.555Z,14.30
2023-04-03T13:48:41.075Z,12.70
2023-04-03T13:51:18.770Z,13.23
2023-04-03T13:53:51.615Z,12.93
2023-04-03T13:56:18.809Z,13.73
2023-04-03T13:58:54.862Z,11.23
2023-04-03T14:01:24.063Z,11.98
2023-04-03T14:03:54.340Z,13.05
2023-04-03T14:06:21.777Z,14.35
2023-04-03T14:08:49.962Z,10.95
2023-04-03T14:11:19.549Z,12.55
2023-04-03T14:13:47.924Z,10.63
2023-04-03T14:16:17.686Z,11.50
2023-04-03T14:18:46.112Z,12.43
2023-04-03T14:21:15.186Z,10.65
2023-04-03T14:23:42.833Z,10.55
2023-04-03T14:26:20.103Z,9.80
2023-04-03T14:28:48.014Z,10.93
2023-04-03T14:31:16.982Z,11.80
2023-04-03T14:33:44.282Z,11.23
2023-04-03T14:36:18.755Z,12.23
2023-04-03T14:38:46.277Z,9.75
2023-04-03T14:41:16.875Z,9.10
2023-04-03T14:43:45.022Z,8.52
2023-04-03T14:46:16.881Z,8.23
2023-04-03T14:48:44.511Z,7.82
2023-04-03T14:51:13.077Z,7.97
2023-04-03T14:53:41.788Z,11.75
2023-04-03T14:56:19.761Z,10.20
2023-04-03T14:58:50.456Z,9.75
2023-04-03T15:01:18.325Z,9.05
2023-04-03T15:03:45.624Z,9.25
2023-04-03T15:06:13.550Z,9.43
2023-04-03T15:08:42.710Z,9.18
2023-04-03T15:11:11.167Z,8.13
2023-04-03T15:13:38.764Z,6.20
2023-04-03T15:16:06.585Z,6.00
2023-04-03T15:18:38.028Z,7.43
2023-04-03T15:21:05.333Z,7.07
2023-04-03T15:23:32.512Z,7.65
2023-04-03T15:25:59.962Z,7.43
2023-04-03T15:28:30.302Z,7.50
2023-04-03T15:30:57.448Z,8.10
2023-04-03T15:33:24.832Z,8.00
2023-04-03T15:35:52.542Z,7.32
2023-04-03T15:38:20.320Z,7.95
2023-04-03T15:40:50.855Z,7.40
2023-04-03T15:43:18.114Z,6.72
2023-04-03T15:45:45.709Z,7.07
2023-04-03T15:48:13.129Z,6.28
2023-04-03T15:50:41.103Z,6.20
2023-04-03T15:53:08.236Z,6.88
2023-04-03T15:55:36.453Z,5.30
2023-04-03T15:58:04.484Z,5.43
2023-04-03T16:00:32.862Z,6.82
2023-04-03T16:03:02.848Z,5.15
2023-04-03T16:05:30.416Z,5.57
2023-04-03T16:07:58.717Z,5.60
2023-04-03T16:10:25.973Z,5.53
2023-04-03T16:12:53.240Z,5.07
2023-04-03T16:15:20.465Z,5.07
2023-04-03T16:17:49.108Z,5.07
2023-04-03T16:20:16.692Z,5.75
2023-04-03T16:22:43.984Z,5.07
2023-04-03T16:25:11.431Z,5.45
2023-04-03T16:27:39.245Z,5.57
2023-04-03T16:30:06.900Z,6.20
2023-04-03T16:32:34.350Z,6.05
2023-04-03T16:37:34.040Z,6.15
2023-04-03T16:40:01.202Z,5.68
2023-04-03T16:42:28.470Z,6.57
2023-04-03T16:44:55.675Z,5.05
2023-04-03T16:47:22.841Z,6.38
2023-04-03T16:49:50.072Z,5.43
2023-04-03T16:52:23.693Z,6.43
2023-04-03T16:54:52.730Z,6.95
2023-04-03T16:57:21.483Z,5.05
2023-04-03T16:59:48.641Z,5.32
2023-04-03T17:02:15.929Z,6.22
2023-04-03T17:04:43.022Z,5.47
2023-04-03T17:07:10.218Z,7.80
2023-04-03T17:09:38.399Z,5.43
2023-04-03T17:12:05.694Z,4.93
2023-04-03T17:14:32.848Z,5.18
2023-04-03T17:17:00.175Z,4.97
2023-04-03T17:19:27.879Z,7.03
2023-04-03T17:21:56.091Z,6.47
2023-04-03T17:24:23.598Z,6.70
2023-04-03T17:26:50.856Z,5.18
2023-04-03T17:29:17.976Z,6.63
2023-04-03T17:31:45.301Z,5.75
2023-04-03T17:34:13.009Z,5.53
2023-04-03T17:36:41.306Z,7.05
2023-04-03T17:39:08.787Z,8.23
2023-04-03T17:41:36.211Z,6.00
2023-04-03T17:44:04.004Z,6.15
2023-04-03T17:46:32.591Z,6.03
2023-04-03T17:49:01.109Z,7.00
2023-04-03T17:51:28.862Z,6.95
2023-04-03T17:53:56.110Z,6.93
2023-04-03T17:56:24.734Z,6.05
2023-04-03T17:58:52.411Z,7.45
2023-04-03T18:01:21.177Z,5.20
2023-04-03T18:03:48.861Z,6.55
2023-04-03T18:06:18.098Z,6.15
2023-04-03T18:08:48.104Z,6.03
2023-04-03T18:11:16.197Z,6.32
2023-04-03T18:13:43.766Z,5.50
2023-04-03T18:16:12.268Z,5.95
2023-04-03T18:18:39.896Z,6.18
2023-04-03T18:21:09.038Z,5.65
2023-04-03T18:23:38.089Z,6.95
2023-04-03T18:26:05.556Z,8.73
2023-04-03T18:28:32.848Z,7.13
2023-04-03T18:31:01.448Z,7.10
2023-04-03T18:33:28.722Z,7.38
2023-04-03T18:35:55.932Z,6.22
2023-04-03T18:38:23.223Z,8.15
2023-04-03T18:40:50.711Z,7.82
2023-04-03T18:43:17.874Z,7.78
2023-04-03T18:45:45.461Z,8.65
2023-04-03T18:48:12.772Z,7.80
2023-04-03T18:50:40.145Z,9.18
2023-04-03T18:53:07.546Z,8.82
2023-04-03T18:55:35.654Z,9.95
2023-04-03T18:58:02.769Z,9.85
2023-04-03T19:00:30.140Z,9.30
2023-04-03T19:02:57.427Z,11.70
2023-04-03T19:05:27.124Z,9.80
2023-04-03T19:07:55.708Z,12.00
2023-04-03T19:10:23.021Z,10.50
2023-04-03T19:12:50.988Z,10.98
2023-04-03T19:15:20.156Z,11.65
2023-04-03T19:17:47.431Z,11.73
2023-04-03T19:20:14.907Z,11.48
2023-04-03T19:22:42.251Z,11.85
2023-04-03T19:25:13.013Z,12.13
2023-04-03T19:27:41.479Z,10.75
2023-04-03T19:30:09.451Z,12.77
2023-04-03T19:32:36.630Z,10.32
2023-04-03T19:35:03.965Z,10.65
2023-04-03T19:37:31.287Z,10.18
2023-04-03T19:39:58.517Z,10.90
2023-04-03T19:42:28.338Z,15.20
2023-04-03T19:44:55.858Z,12.25
2023-04-03T19:47:23.193Z,13.13
2023-04-03T19:49:50.639Z,13.07
2023-04-03T19:52:17.994Z,12.48
2023-04-03T19:54:45.254Z,11.50
2023-04-03T19:57:12.389Z,11.40
2023-04-03T19:59:39.571Z,10.95
2023-04-03T20:02:07.337Z,12.80
2023-04-03T20:04:34.596Z,12.00
2023-04-03T20:07:02.348Z,12.38
2023-04-03T20:09:29.577Z,11.75
2023-04-03T20:11:57.893Z,10.85
2023-04-03T20:14:25.175Z,11.90
2023-04-03T20:16:52.289Z,12.50
2023-04-03T20:19:19.590Z,11.40
2023-04-03T20:21:47.854Z,11.32
2023-04-03T20:24:16.441Z,11.73
2023-04-03T20:26:46.476Z,10.65
2023-04-03T20:29:14.689Z,11.95
2023-04-03T20:31:42.329Z,10.73
2023-04-03T20:34:09.672Z,10.95
2023-04-03T20:36:37.471Z,11.27
2023-04-03T20:39:05.099Z,9.60
2023-04-03T20:41:35.441Z,10.90
2023-04-03T20:44:02.893Z,9.30
2023-04-03T20:46:42.210Z,10.95
2023-04-03T20:49:17.910Z,11.10
2023-04-03T20:51:45.254Z,10.43
2023-04-03T20:54:12.935Z,10.75
2023-04-03T20:56:40.187Z,10.00
2023-04-03T20:59:07.503Z,9.60
2023-04-03T21:01:34.724Z,11.35
2023-04-03T21:04:07.373Z,11.77
2023-04-03T21:06:52.965Z,10.48
2023-04-03T21:09:39.080Z,10.32
2023-04-03T21:12:25.100Z,9.57
2023-04-03T21:15:13.595Z,10.85
2023-04-03T21:17:57.070Z,11.00
2023-04-03T21:20:24.246Z,9.65
2023-04-03T21:22:51.325Z,10.27
2023-04-03T21:25:18.443Z,10.55
2023-04-03T21:27:45.711Z,13.45
2023-04-03T21:30:13.768Z,11.02
2023-04-03T21:32:41.191Z,9.98
2023-04-03T21:35:09.437Z,9.40
2023-04-03T21:37:36.550Z,10.70
2023-04-03T21:40:04.219Z,10.68
2023-04-03T21:42:31.902Z,10.18
2023-04-03T21:44:59.000Z,9.85
2023-04-03T21:47:26.844Z,9.40
2023-04-03T21:49:54.518Z,10.48
2023-04-03T21:52:22.065Z,9.45
2023-04-03T21:54:49.237Z,10.70
2023-04-03T21:57:16.370Z,11.10
2023-04-03T21:59:43.878Z,9.63
2023-04-03T22:02:11.130Z,9.95
2023-04-03T22:04:38.451Z,12.02
2023-04-03T22:07:05.595Z,12.15
2023-04-03T22:09:32.723Z,11.07
2023-04-03T22:12:00.161Z,9.20
2023-04-03T22:14:27.724Z,11.60
2023-04-03T22:16:55.186Z,9.68
2023-04-03T22:19:22.376Z,10.75
2023-04-03T22:21:49.499Z,11.13
2023-04-03T22:24:20.290Z,12.25
2023-04-03T22:26:47.881Z,11.30
2023-04-03T22:29:15.085Z,13.57
2023-04-03T22:31:42.421Z,11.95
2023-04-03T22:34:09.707Z,11.48
2023-04-03T22:36:37.488Z,9.38
2023-04-03T22:39:05.874Z,9.23
2023-04-03T22:41:34.150Z,11.60
2023-04-03T22:44:01.440Z,11.23
2023-04-03T22:46:28.610Z,10.88
2023-04-03T22:48:55.747Z,10.05
2023-04-03T22:51:22.855Z,9.75
2023-04-03T22:53:49.973Z,9.52
2023-04-03T22:56:17.217Z,9.80
2023-04-03T22:58:44.783Z,8.30
2023-04-03T23:01:12.789Z,9.45
2023-04-03T23:03:40.787Z,8.15
2023-04-03T23:06:08.765Z,9.32
2023-04-03T23:08:38.724Z,8.85
2023-04-03T23:11:07.359Z,9.82
2023-04-03T23:13:34.756Z,10.25
2023-04-03T23:16:02.528Z,8.90
2023-04-03T23:18:30.295Z,10.88
2023-04-03T23:20:59.073Z,9.20
2023-04-03T23:23:26.247Z,10.25
2023-04-03T23:25:53.948Z,9.95
2023-04-03T23:28:21.187Z,10.70
2023-04-03T23:30:48.433Z,10.38
2023-04-03T23:33:16.018Z,10.32
2023-04-03T23:35:46.492Z,9.55
2023-04-03T23:38:13.871Z,8.93
2023-04-03T23:40:44.197Z,10.85
2023-04-03T23:43:11.647Z,9.50
2023-04-03T23:45:39.128Z,10.00
2023-04-03T23:48:06.534Z,8.35
2023-04-03T23:50:33.729Z,10.38
2023-04-03T23:53:01.061Z,8.07
2023-04-03T23:55:28.294Z,8.98
2023-04-03T23:57:55.529Z,9.25
